Time,TemperatureF,DewpointF,PressureIn,WindDirection,WindDirectionDegrees,WindSpeedMPH,WindSpeedGustMPH,Humidity,HourlyPrecipIn,Conditions,Clouds,dailyrainin,SolarRadiationWatts/m^2,SoftwareType,DateUTC
2013-02-07 00:01:00,60.0,29.0,-100.00,West,279,4.0,7.0,31,0.00,,,0.00,619.000000,,2013-02-07 00:01:00,
2013-02-07 00:11:00,60.0,29.0,-100.00,West,279,4.0,7.0,31,0.00,,,0.00,619.000000,,2013-02-07 00:11:00,
2013-02-07 00:42:00,53.0,34.0,-100.00,WNW,292,2.0,8.0,48,0.00,,,0.00,383.000000,,2013-02-07 00:42:00,
2013-02-07 00:52:00,53.0,34.0,-100.00,WNW,292,2.0,8.0,48,0.00,,,0.00,383.000000,,2013-02-07 00:52:00,
2013-02-07 01:01:00,53.0,34.0,-100.00,WNW,292,2.0,8.0,48,0.00,,,0.00,383.000000,,2013-02-07 01:01:00,
2013-02-07 01:11:00,53.0,34.0,-100.00,WNW,292,2.0,8.0,48,0.00,,,0.00,383.000000,,2013-02-07 01:11:00,
2013-02-07 01:42:00,48.0,34.0,-100.00,East,94,0.0,6.0,58,0.00,,,0.00,118.000000,,2013-02-07 01:42:00,
2013-02-07 01:52:00,48.0,34.0,-100.00,East,94,0.0,6.0,58,0.00,,,0.00,118.000000,,2013-02-07 01:52:00,
2013-02-07 02:01:00,48.0,34.0,-100.00,East,94,0.0,6.0,58,0.00,,,0.00,118.000000,,2013-02-07 02:01:00,
2013-02-07 02:11:00,48.0,34.0,-100.00,East,94,0.0,6.0,58,0.00,,,0.00,118.000000,,2013-02-07 02:11:00,
2013-02-07 03:02:00,39.0,33.0,-100.00,ESE,104,0.0,0.0,79,0.00,,,0.00,3.000000,,2013-02-07 03:02:00,
2013-02-07 03:11:00,39.0,33.0,-100.00,ESE,104,0.0,0.0,79,0.00,,,0.00,3.000000,,2013-02-07 03:11:00,
2013-02-07 03:32:00,37.0,32.0,-100.00,East,98,0.0,3.0,81,0.00,,,0.00,0.000000,,2013-02-07 03:32:00,
2013-02-07 03:42:00,37.0,32.0,-100.00,East,98,0.0,3.0,81,0.00,,,0.00,0.000000,,2013-02-07 03:42:00,
2013-02-07 03:52:00,37.0,32.0,-100.00,East,98,0.0,3.0,81,0.00,,,0.00,0.000000,,2013-02-07 03:52:00,
2013-02-07 04:01:00,37.0,32.0,-100.00,East,98,0.0,3.0,81,0.00,,,0.00,0.000000,,2013-02-07 04:01:00,
2013-02-07 04:11:00,37.0,32.0,-100.00,East,98,0.0,3.0,81,0.00,,,0.00,0.000000,,2013-02-07 04:11:00,
2013-02-07 04:32:00,37.0,21.0,-100.00,SE,128,0.0,3.0,53,0.00,,,0.00,0.000000,,2013-02-07 04:32:00,
2013-02-07 04:42:00,37.0,21.0,-100.00,SE,128,0.0,3.0,53,0.00,,,0.00,0.000000,,2013-02-07 04:42:00,
2013-02-07 04:53:00,37.0,21.0,-100.00,SE,128,0.0,3.0,53,0.00,,,0.00,0.000000,,2013-02-07 04:53:00,
2013-02-07 05:01:00,37.0,21.0,-100.00,SE,128,0.0,3.0,53,0.00,,,0.00,0.000000,,2013-02-07 05:01:00,
2013-02-07 05:11:00,37.0,21.0,-100.00,SE,128,0.0,3.0,53,0.00,,,0.00,0.000000,,2013-02-07 05:11:00,
2013-02-07 05:32:00,37.0,25.0,-100.00,ESE,104,0.0,0.0,61,0.00,,,0.00,0.000000,,2013-02-07 05:32:00,
2013-02-07 05:42:00,37.0,25.0,-100.00,ESE,104,0.0,0.0,61,0.00,,,0.00,0.000000,,2013-02-07 05:42:00,
2013-02-07 05:52:00,37.0,25.0,-100.00,ESE,104,0.0,0.0,61,0.00,,,0.00,0.000000,,2013-02-07 05:52:00,
2013-02-07 06:02:00,37.0,25.0,-100.00,ESE,104,0.0,0.0,61,0.00,,,0.00,0.000000,,2013-02-07 06:02:00,
2013-02-07 06:11:00,37.0,25.0,-100.00,ESE,104,0.0,0.0,61,0.00,,,0.00,0.000000,,2013-02-07 06:11:00,
2013-02-07 06:32:00,37.0,20.0,-100.00,NNE,20,0.0,4.0,49,0.00,,,0.00,0.000000,,2013-02-07 06:32:00,
2013-02-07 06:43:00,37.0,20.0,-100.00,NNE,20,0.0,4.0,49,0.00,,,0.00,0.000000,,2013-02-07 06:43:00,
2013-02-07 06:52:00,37.0,20.0,-100.00,NNE,20,0.0,4.0,49,0.00,,,0.00,0.000000,,2013-02-07 06:52:00,
2013-02-07 07:01:00,37.0,20.0,-100.00,NNE,20,0.0,4.0,49,0.00,,,0.00,0.000000,,2013-02-07 07:01:00,
2013-02-07 07:11:00,37.0,20.0,-100.00,NNE,20,0.0,4.0,49,0.00,,,0.00,0.000000,,2013-02-07 07:11:00,
2013-02-07 07:32:00,37.0,18.0,-100.00,East,85,0.0,4.0,46,0.00,,,0.00,0.000000,,2013-02-07 07:32:00,
2013-02-07 07:42:00,37.0,18.0,-100.00,East,85,0.0,4.0,46,0.00,,,0.00,0.000000,,2013-02-07 07:42:00,
2013-02-07 07:52:00,37.0,18.0,-100.00,East,85,0.0,4.0,46,0.00,,,0.00,0.000000,,2013-02-07 07:52:00,
2013-02-07 08:01:00,37.0,18.0,-100.00,East,85,0.0,4.0,46,0.00,,,0.00,0.000000,,2013-02-07 08:01:00,
2013-02-07 08:11:00,37.0,18.0,-100.00,East,85,0.0,4.0,46,0.00,,,0.00,0.000000,,2013-02-07 08:11:00,
2013-02-07 08:42:00,36.0,17.0,-100.00,ESE,123,0.0,4.0,46,0.00,,,0.00,0.000000,,2013-02-07 08:42:00,
2013-02-07 08:52:00,36.0,17.0,-100.00,ESE,123,0.0,4.0,46,0.00,,,0.00,0.000000,,2013-02-07 08:52:00,
2013-02-07 09:01:00,36.0,17.0,-100.00,ESE,123,0.0,4.0,46,0.00,,,0.00,0.000000,,2013-02-07 09:01:00,
2013-02-07 09:11:00,36.0,17.0,-100.00,ESE,123,0.0,4.0,46,0.00,,,0.00,0.000000,,2013-02-07 09:11:00,
2013-02-07 09:32:00,37.0,17.0,-100.00,SE,127,0.0,4.0,44,0.00,,,0.00,0.000000,,2013-02-07 09:32:00,
2013-02-07 09:42:00,37.0,17.0,-100.00,SE,127,0.0,4.0,44,0.00,,,0.00,0.000000,,2013-02-07 09:42:00,
2013-02-07 09:52:00,37.0,17.0,-100.00,SE,127,0.0,4.0,44,0.00,,,0.00,0.000000,,2013-02-07 09:52:00,
2013-02-07 10:01:00,37.0,17.0,-100.00,SE,127,0.0,4.0,44,0.00,,,0.00,0.000000,,2013-02-07 10:01:00,
2013-02-07 10:11:00,37.0,17.0,-100.00,SE,127,0.0,4.0,44,0.00,,,0.00,0.000000,,2013-02-07 10:11:00,
2013-02-07 10:42:00,36.0,16.0,-100.00,ESE,110,0.0,3.0,43,0.00,,,0.00,0.000000,,2013-02-07 10:42:00,
2013-02-07 10:52:00,36.0,16.0,-100.00,ESE,110,0.0,3.0,43,0.00,,,0.00,0.000000,,2013-02-07 10:52:00,
2013-02-07 11:01:00,36.0,16.0,-100.00,ESE,110,0.0,3.0,43,0.00,,,0.00,0.000000,,2013-02-07 11:01:00,
2013-02-07 11:11:00,36.0,16.0,-100.00,ESE,110,0.0,3.0,43,0.00,,,0.00,0.000000,,2013-02-07 11:11:00,
2013-02-07 11:44:00,37.0,17.0,-100.00,ESE,120,0.0,5.0,43,0.00,,,0.00,0.000000,,2013-02-07 11:44:00,
2013-02-07 11:52:00,37.0,17.0,-100.00,ESE,120,0.0,5.0,43,0.00,,,0.00,0.000000,,2013-02-07 11:52:00,
2013-02-07 12:01:00,37.0,17.0,-100.00,ESE,120,0.0,5.0,43,0.00,,,0.00,0.000000,,2013-02-07 12:01:00,
2013-02-07 12:11:00,37.0,17.0,-100.00,ESE,120,0.0,5.0,43,0.00,,,0.00,0.000000,,2013-02-07 12:11:00,
2013-02-07 12:33:00,33.0,17.0,-100.00,SE,145,1.0,3.0,51,0.00,,,0.00,0.000000,,2013-02-07 12:33:00,
2013-02-07 12:42:00,33.0,17.0,-100.00,SE,145,1.0,3.0,51,0.00,,,0.00,0.000000,,2013-02-07 12:42:00,
2013-02-07 12:53:00,33.0,17.0,-100.00,SE,145,1.0,3.0,51,0.00,,,0.00,0.000000,,2013-02-07 12:53:00,
2013-02-07 13:02:00,33.0,17.0,-100.00,SE,145,1.0,3.0,51,0.00,,,0.00,0.000000,,2013-02-07 13:02:00,
2013-02-07 13:11:00,33.0,17.0,-100.00,SE,145,1.0,3.0,51,0.00,,,0.00,0.000000,,2013-02-07 13:11:00,
2013-02-07 13:42:00,33.0,17.0,-100.00,ESE,110,0.0,4.0,52,0.00,,,0.00,0.000000,,2013-02-07 13:42:00,
2013-02-07 13:52:00,33.0,17.0,-100.00,ESE,110,0.0,4.0,52,0.00,,,0.00,0.000000,,2013-02-07 13:52:00,
2013-02-07 14:01:00,33.0,17.0,-100.00,ESE,110,0.0,4.0,52,0.00,,,0.00,0.000000,,2013-02-07 14:01:00,
2013-02-07 14:11:00,33.0,17.0,-100.00,ESE,110,0.0,4.0,52,0.00,,,0.00,0.000000,,2013-02-07 14:11:00,
2013-02-07 14:32:00,34.0,19.0,-100.00,SE,136,0.0,4.0,54,0.00,,,0.00,0.000000,,2013-02-07 14:32:00,
2013-02-07 14:42:00,34.0,19.0,-100.00,SE,136,0.0,4.0,54,0.00,,,0.00,0.000000,,2013-02-07 14:42:00,
2013-02-07 14:52:00,34.0,19.0,-100.00,SE,136,0.0,4.0,54,0.00,,,0.00,0.000000,,2013-02-07 14:52:00,
2013-02-07 15:01:00,34.0,19.0,-100.00,SE,136,0.0,4.0,54,0.00,,,0.00,0.000000,,2013-02-07 15:01:00,
2013-02-07 15:11:00,34.0,19.0,-100.00,SE,136,0.0,4.0,54,0.00,,,0.00,0.000000,,2013-02-07 15:11:00,
2013-02-07 15:42:00,36.0,21.0,-100.00,ESE,108,0.0,3.0,53,0.00,,,0.00,8.000000,,2013-02-07 15:42:00,
2013-02-07 15:52:00,36.0,21.0,-100.00,ESE,108,0.0,3.0,53,0.00,,,0.00,8.000000,,2013-02-07 15:52:00,
2013-02-07 16:01:00,36.0,21.0,-100.00,ESE,108,0.0,3.0,53,0.00,,,0.00,8.000000,,2013-02-07 16:01:00,
2013-02-07 16:11:00,36.0,21.0,-100.00,ESE,108,0.0,3.0,53,0.00,,,0.00,8.000000,,2013-02-07 16:11:00,
2013-02-07 16:42:00,50.0,25.0,-100.00,SE,141,0.0,4.0,38,0.00,,,0.00,176.000000,,2013-02-07 16:42:00,
2013-02-07 16:52:00,50.0,25.0,-100.00,SE,141,0.0,4.0,38,0.00,,,0.00,176.000000,,2013-02-07 16:52:00,
2013-02-07 17:01:00,50.0,25.0,-100.00,SE,141,0.0,4.0,38,0.00,,,0.00,176.000000,,2013-02-07 17:01:00,
2013-02-07 17:43:00,59.0,23.0,-100.00,SE,124,2.0,8.0,25,0.00,,,0.00,476.000000,,2013-02-07 17:43:00,
2013-02-07 17:52:00,59.0,23.0,-100.00,SE,124,2.0,8.0,25,0.00,,,0.00,476.000000,,2013-02-07 17:52:00,
2013-02-07 18:01:00,59.0,23.0,-100.00,SE,124,2.0,8.0,25,0.00,,,0.00,476.000000,,2013-02-07 18:01:00,
2013-02-07 18:42:00,63.0,21.0,-100.00,SSE,166,1.0,7.0,20,-99.99,,,0.00,688.000000,,2013-02-07 18:42:00,
2013-02-07 18:52:00,63.0,21.0,-100.00,SSE,166,1.0,7.0,20,-99.99,,,0.00,688.000000,,2013-02-07 18:52:00,
2013-02-07 19:01:00,63.0,21.0,-100.00,SSE,166,1.0,7.0,20,-99.99,,,0.00,688.000000,,2013-02-07 19:01:00,
2013-02-07 19:42:00,63.0,20.0,-100.00,SW,232,3.0,8.0,19,-99.99,,,0.00,831.000000,,2013-02-07 19:42:00,
2013-02-07 19:52:00,63.0,20.0,-100.00,SW,232,3.0,8.0,19,-99.99,,,0.00,831.000000,,2013-02-07 19:52:00,
2013-02-07 20:01:00,63.0,20.0,-100.00,SW,232,3.0,8.0,19,-99.99,,,0.00,831.000000,,2013-02-07 20:01:00,
2013-02-07 20:42:00,61.0,30.0,-100.00,WNW,297,3.0,9.0,31,0.00,,,0.00,899.000000,,2013-02-07 20:42:00,
2013-02-07 20:52:00,61.0,30.0,-100.00,WNW,297,3.0,9.0,31,0.00,,,0.00,899.000000,,2013-02-07 20:52:00,
2013-02-07 21:01:00,61.0,30.0,-100.00,WNW,297,3.0,9.0,31,0.00,,,0.00,899.000000,,2013-02-07 21:01:00,
2013-02-07 21:11:00,61.0,30.0,-100.00,WNW,297,3.0,9.0,31,0.00,,,0.00,899.000000,,2013-02-07 21:11:00,
2013-02-07 21:42:00,59.0,35.0,-100.00,South,189,5.0,12.0,40,0.00,,,0.00,877.000000,,2013-02-07 21:42:00,
2013-02-07 21:52:00,59.0,35.0,-100.00,South,189,5.0,12.0,40,0.00,,,0.00,877.000000,,2013-02-07 21:52:00,
2013-02-07 22:01:00,59.0,35.0,-100.00,South,189,5.0,12.0,40,0.00,,,0.00,877.000000,,2013-02-07 22:01:00,
2013-02-07 22:32:00,59.0,28.0,-100.00,WNW,286,4.0,11.0,30,0.00,,,0.00,789.000000,,2013-02-07 22:32:00,
2013-02-07 22:42:00,59.0,28.0,-100.00,WNW,286,4.0,11.0,30,0.00,,,0.00,789.000000,,2013-02-07 22:42:00,
2013-02-07 22:52:00,59.0,28.0,-100.00,WNW,286,4.0,11.0,30,0.00,,,0.00,789.000000,,2013-02-07 22:52:00,
2013-02-07 23:01:00,59.0,28.0,-100.00,WNW,286,4.0,11.0,30,0.00,,,0.00,789.000000,,2013-02-07 23:01:00,
2013-02-07 23:11:00,59.0,28.0,-100.00,WNW,286,4.0,11.0,30,0.00,,,0.00,789.000000,,2013-02-07 23:11:00,
2013-02-07 23:42:00,57.0,30.0,-100.00,West,266,4.0,11.0,36,0.00,,,0.00,610.000000,,2013-02-07 23:42:00,
2013-02-07 23:52:00,57.0,30.0,-100.00,West,266,4.0,11.0,36,0.00,,,0.00,610.000000,,2013-02-07 23:52:00,